Time;durP1;ratioP1;P1;durP2;ratioP2;P2;SDS_P1;SDS_P2;PMS_P1;PMS_P2;Temp;Humidity;BMP_temperature;BMP_pressure;BME280_temperature;BME280_humidity;BME280_pressure;Samples;Min_cycle;Max_cycle;Signal;HPM_P1;HPM_P2
2022/11/22 00:00:00;;;;;;;8.85;4.13;;;;;;;-7.54;95.52;101349.91;10553122;28;20032;-78
2022/11/22 00:05:02;;;;;;;6.90;2.03;;;;;;;-7.50;95.24;101361.94;10563728;28;20044;-80
2022/11/22 00:10:06;;;;;;;3.58;2.15;;;;;;;-7.46;95.78;101358.00;10554867;28;20525;-78
2022/11/22 00:15:09;;;;;;;7.25;3.90;;;;;;;-7.43;95.88;101355.91;10569773;28;20046;-76
2022/11/22 00:20:12;;;;;;;10.07;5.60;;;;;;;-7.41;95.92;101353.94;10573137;28;20051;-76
2022/11/22 00:25:14;;;;;;;2.38;1.65;;;;;;;-7.44;95.93;101353.38;10570486;28;20036;-78
2022/11/22 00:30:16;;;;;;;3.67;1.98;;;;;;;-7.49;95.92;101358.28;10570787;28;20053;-77
2022/11/22 00:35:19;;;;;;;5.70;3.83;;;;;;;-7.54;95.74;101363.22;10568680;28;20498;-76
2022/11/22 00:40:21;;;;;;;8.13;4.20;;;;;;;-7.58;95.92;101349.38;10572846;28;20097;-77
2022/11/22 00:45:23;;;;;;;1.77;1.23;;;;;;;-7.60;96.25;101349.50;10571909;28;20036;-78
2022/11/22 00:50:25;;;;;;;3.47;2.10;;;;;;;-7.63;95.86;101343.66;10565520;28;20054;-76
2022/11/22 00:55:27;;;;;;;6.15;4.03;;;;;;;-7.64;96.07;101345.44;10568812;28;20036;-78
2022/11/22 01:00:30;;;;;;;5.65;3.45;;;;;;;-7.68;95.51;101343.22;10571963;28;20047;-77
2022/11/22 01:05:32;;;;;;;8.82;3.78;;;;;;;-7.69;95.71;101357.53;10567098;28;20055;-77
2022/11/22 01:10:35;;;;;;;7.15;2.90;;;;;;;-7.74;95.74;101347.31;10571369;28;20047;-78
2022/11/22 01:15:38;;;;;;;6.70;3.65;;;;;;;-7.73;95.88;101351.66;10553960;28;20414;-78
2022/11/22 01:20:44;;;;;;;1.50;1.38;;;;;;;-7.78;95.87;101356.59;10570774;28;20047;-76
2022/11/22 01:26:05;;;;;;;3.88;2.88;;;;;;;-7.85;95.34;101358.13;10566881;28;20524;-77
2022/11/22 01:31:08;;;;;;;4.82;1.80;;;;;;;-7.84;95.50;101353.63;10570306;28;20044;-76
2022/11/22 01:36:10;;;;;;;1.85;1.48;;;;;;;-7.92;95.71;101343.72;10570378;28;20036;-76
2022/11/22 01:41:12;;;;;;;4.57;3.05;;;;;;;-7.98;95.88;101353.13;10548562;28;20048;-77
2022/11/22 01:46:33;;;;;;;7.15;3.22;;;;;;;-8.00;95.75;101338.25;10552626;28;20043;-76
2022/11/22 01:51:39;;;;;;;2.53;1.58;;;;;;;-7.95;95.56;101323.53;10537066;28;20043;-77
2022/11/22 01:56:43;;;;;;;3.25;2.47;;;;;;;-7.99;95.43;101331.94;10550763;28;20534;-78
2022/11/22 02:01:49;;;;;;;5.03;2.03;;;;;;;-8.02;95.24;101324.25;10569098;28;20540;-78
2022/11/22 02:07:04;;;;;;;4.40;2.17;;;;;;;-7.98;96.07;101320.34;10567826;28;20044;-78
2022/11/22 02:12:07;;;;;;;6.43;2.97;;;;;;;-7.98;96.04;101317.69;10569916;28;20043;-77
2022/11/22 02:17:13;;;;;;;8.63;4.07;;;;;;;-8.03;95.92;101314.59;10568613;28;20506;-76
2022/11/22 02:22:46;;;;;;;7.50;3.60;;;;;;;-8.06;95.84;101315.72;10568920;28;20052;-76
2022/11/22 02:27:52;;;;;;;4.75;3.35;;;;;;;-8.09;95.70;101339.13;10529746;28;20425;-76
2022/11/22 02:32:54;;;;;;;5.72;3.90;;;;;;;-8.24;95.49;101323.59;10527899;28;20047;-76
2022/11/22 02:38:15;;;;;;;4.90;3.13;;;;;;;-8.31;95.61;101319.84;10567071;28;20047;-75
2022/11/22 02:43:21;;;;;;;5.35;3.30;;;;;;;-8.35;96.05;101323.78;10566896;28;20040;-76
2022/11/22 02:48:23;;;;;;;4.70;3.03;;;;;;;-8.33;95.29;101323.59;10576827;28;20445;-77
2022/11/22 02:53:26;;;;;;;6.55;4.75;;;;;;;-8.33;95.57;101337.78;10575786;28;20040;-77
2022/11/22 02:58:32;;;;;;;9.38;2.53;;;;;;;-8.40;95.33;101320.72;10576338;28;20040;-77
2022/11/22 03:03:34;;;;;;;6.68;3.72;;;;;;;-8.46;95.41;101323.09;10577143;28;20044;-78
2022/11/22 03:08:36;;;;;;;6.50;4.07;;;;;;;-8.52;95.40;101313.84;10573897;28;20032;-76
2022/11/22 03:13:39;;;;;;;5.22;3.55;;;;;;;-8.62;96.24;101308.53;10555302;28;20517;-76
2022/11/22 03:18:41;;;;;;;3.80;2.85;;;;;;;-8.64;95.53;101329.13;10576693;28;20044;-75
2022/11/22 03:23:43;;;;;;;4.68;2.03;;;;;;;-8.67;96.21;101312.63;10576124;28;20051;-76
2022/11/22 03:28:45;;;;;;;5.78;3.05;;;;;;;-8.64;95.60;101301.69;10576612;28;20048;-77
2022/11/22 03:33:49;;;;;;;6.50;3.17;;;;;;;-8.59;96.46;101289.63;10573447;28;20040;-76
2022/11/22 03:38:51;;;;;;;4.22;3.35;;;;;;;-8.60;96.21;101295.94;10571116;28;20051;-77
2022/11/22 03:43:53;;;;;;;4.03;2.42;;;;;;;-8.57;96.33;101281.50;10572774;28;20055;-77
2022/11/22 03:48:55;;;;;;;6.03;3.50;;;;;;;-8.51;96.37;101275.63;10573424;28;20053;-78
2022/11/22 03:53:58;;;;;;;6.63;3.63;;;;;;;-8.43;96.33;101278.41;10541814;28;20517;-78
2022/11/22 03:59:00;;;;;;;8.77;3.10;;;;;;;-8.35;96.39;101264.38;10572952;28;20036;-78
2022/11/22 04:04:02;;;;;;;5.53;4.07;;;;;;;-8.29;96.77;101267.31;10571366;28;20066;-78
2022/11/22 04:09:05;;;;;;;7.53;4.00;;;;;;;-8.24;96.59;101265.03;10575515;28;20036;-79
2022/11/22 04:19:31;;;;;;;7.22;3.35;;;;;;;-8.09;96.39;101259.25;10547683;28;20043;-78
2022/11/22 04:29:54;;;;;;;1.52;1.42;;;;;;;-7.85;96.85;101243.59;10550080;28;20044;-77
2022/11/22 04:34:56;;;;;;;3.78;2.42;;;;;;;-7.77;96.48;101241.03;10559213;28;20047;-77
2022/11/22 04:39:58;;;;;;;6.97;2.80;;;;;;;-7.69;96.46;101245.63;10549457;28;20062;-77
2022/11/22 04:45:00;;;;;;;0.80;0.80;;;;;;;-7.64;96.27;101249.50;10572138;28;20048;-78
2022/11/22 04:52:52;;;;;;;5.78;3.00;;;;;;;-7.59;96.55;101249.09;10566375;28;20073;-77
2022/11/22 04:55:27;;;;;;;3.17;2.45;;;;;;;-7.52;96.88;101239.50;10565237;28;20040;-77
2022/11/22 05:00:30;;;;;;;6.07;3.50;;;;;;;-7.40;95.84;101237.47;10550975;28;20044;-77
2022/11/22 05:05:37;;;;;;;4.00;3.00;;;;;;;-7.38;96.33;101225.66;10556936;28;20044;-77
2022/11/22 05:10:58;;;;;;;4.10;2.10;;;;;;;-7.36;95.90;101223.69;10562494;28;20422;-76
2022/11/22 05:16:02;;;;;;;5.95;3.13;;;;;;;-7.29;95.39;101221.25;10547007;28;20040;-77
2022/11/22 05:21:12;;;;;;;7.45;3.05;;;;;;;-7.30;95.71;101220.41;10569349;28;20052;-77
2022/11/22 05:26:14;;;;;;;6.60;3.65;;;;;;;-7.26;95.08;101212.13;10557478;28;20490;-77
2022/11/22 05:31:23;;;;;;;1.88;1.67;;;;;;;-7.25;95.62;101217.31;10568233;28;20044;-77
2022/11/22 05:36:26;;;;;;;2.92;2.03;;;;;;;-7.22;95.35;101217.00;10545730;28;20036;-77
2022/11/22 05:41:28;;;;;;;4.18;2.22;;;;;;;-7.17;95.69;101219.19;10562499;28;20043;-76
2022/11/22 05:46:30;;;;;;;7.82;3.67;;;;;;;-7.12;95.43;101203.56;10570032;28;20048;-77
2022/11/22 05:51:33;;;;;;;3.78;1.67;;;;;;;-7.03;95.29;101214.19;10551429;28;20414;-77
2022/11/22 05:56:35;;;;;;;1.80;1.67;;;;;;;-7.00;94.92;101200.53;10557011;28;20035;-77
2022/11/22 06:01:37;;;;;;;6.60;4.07;;;;;;;-6.96;95.19;101205.56;10567392;28;20056;-80
2022/11/22 06:06:39;;;;;;;2.70;1.67;;;;;;;-6.89;95.26;101204.81;10567743;28;20032;-80
2022/11/22 06:11:41;;;;;;;5.22;2.63;;;;;;;-6.83;95.81;101216.69;10567152;28;20031;-80
2022/11/22 06:16:43;;;;;;;6.72;2.95;;;;;;;-6.77;95.72;101221.38;10570054;28;20520;-80
2022/11/22 06:21:46;;;;;;;5.07;3.13;;;;;;;-6.75;95.14;101214.09;10569255;28;20044;-80
2022/11/22 06:26:49;;;;;;;2.00;1.42;;;;;;;-6.65;95.66;101209.50;10570303;28;20478;-80
2022/11/22 06:31:51;;;;;;;4.38;2.00;;;;;;;-6.59;95.83;101208.03;10554413;28;20056;-80
2022/11/22 06:36:54;;;;;;;4.68;3.22;;;;;;;-6.54;95.23;101211.91;10568156;28;20421;-79
2022/11/22 06:41:57;;;;;;;3.50;2.08;;;;;;;-6.49;95.33;101209.59;10557283;28;20418;-80
2022/11/22 06:46:59;;;;;;;4.55;2.13;;;;;;;-6.43;95.50;101203.63;10531542;28;20055;-80
2022/11/22 06:52:01;;;;;;;6.95;2.65;;;;;;;-6.38;95.62;101200.50;10568625;28;20055;-80
2022/11/22 06:57:04;;;;;;;6.63;3.08;;;;;;;-6.31;95.64;101203.38;10568838;28;20047;-80
2022/11/22 07:02:10;;;;;;;3.22;2.80;;;;;;;-6.31;95.24;101203.38;10569028;28;20098;-80
2022/11/22 07:07:12;;;;;;;9.32;4.75;;;;;;;-6.29;95.02;101196.88;10568818;28;20498;-80
2022/11/22 07:12:14;;;;;;;4.30;2.58;;;;;;;-6.26;95.41;101196.56;10568920;28;20044;-80
2022/11/22 07:17:16;;;;;;;2.30;1.40;;;;;;;-6.21;95.13;101201.44;10552375;28;20071;-81
2022/11/22 07:22:19;;;;;;;13.23;4.63;;;;;;;-6.15;94.95;101188.28;10527469;28;20044;-80
2022/11/22 07:27:21;;;;;;;1.85;1.67;;;;;;;-6.09;95.26;101186.78;10527242;28;20055;-79
2022/11/22 07:32:23;;;;;;;5.10;2.22;;;;;;;-6.05;94.86;101182.84;10529389;28;20044;-80
2022/11/22 07:37:25;;;;;;;11.60;5.63;;;;;;;-6.00;94.95;101172.50;10542242;28;20393;-80
2022/11/22 07:42:28;;;;;;;8.85;4.25;;;;;;;-5.95;95.38;101175.50;10576133;28;20051;-80
2022/11/22 07:47:31;;;;;;;7.22;3.42;;;;;;;-5.92;94.80;101190.38;10576308;28;20513;-80
2022/11/22 07:52:33;;;;;;;7.15;2.90;;;;;;;-5.88;94.83;101187.22;10576383;28;20044;-80
2022/11/22 07:57:35;;;;;;;8.52;4.03;;;;;;;-5.84;94.70;101180.56;10574552;28;20040;-80
2022/11/22 08:02:38;;;;;;;5.53;3.22;;;;;;;-5.80;94.37;101175.72;10574034;28;20043;-79
2022/11/22 08:07:50;;;;;;;4.22;2.15;;;;;;;-5.74;94.52;101188.41;10574531;28;20055;-80
2022/11/22 08:12:53;;;;;;;10.02;4.47;;;;;;;-5.72;94.33;101180.25;10570117;28;20036;-79
2022/11/22 08:17:55;;;;;;;6.07;2.47;;;;;;;-5.66;94.09;101187.63;10573585;28;20425;-79
2022/11/22 08:22:57;;;;;;;9.20;4.10;;;;;;;-5.62;93.91;101196.97;10571662;28;20052;-81
2022/11/22 08:28:00;;;;;;;5.28;3.13;;;;;;;-5.58;93.72;101182.28;10566837;28;20044;-81
2022/11/22 08:33:02;;;;;;;8.05;3.00;;;;;;;-5.54;94.36;101167.63;10573581;28;20422;-79
2022/11/22 08:38:04;;;;;;;10.32;3.78;;;;;;;-5.49;93.62;101170.63;10572487;28;20032;-79
2022/11/22 08:43:06;;;;;;;1.25;1.15;;;;;;;-5.43;93.85;101175.31;10571291;28;20067;-80
2022/11/22 08:48:08;;;;;;;3.03;1.02;;;;;;;-5.40;93.52;101164.28;10566564;28;20044;-80
2022/11/22 08:53:11;;;;;;;13.40;4.55;;;;;;;-5.34;93.76;101177.00;10550462;28;20040;-80
2022/11/22 08:58:13;;;;;;;11.10;4.40;;;;;;;-5.28;93.52;101159.47;10577957;28;20058;-82
2022/11/22 09:03:15;;;;;;;10.05;4.47;;;;;;;-5.21;93.23;101163.13;10579450;28;20121;-80
2022/11/22 09:08:17;;;;;;;3.63;2.30;;;;;;;-5.16;93.21;101145.59;10568247;28;20046;-79
2022/11/22 09:13:20;;;;;;;9.57;4.22;;;;;;;-5.09;93.04;101143.09;10578410;28;20044;-81
2022/11/22 09:18:22;;;;;;;7.22;3.50;;;;;;;-5.04;93.23;101158.63;10576900;28;20036;-81
2022/11/22 09:23:24;;;;;;;6.55;3.03;;;;;;;-5.00;93.34;101139.44;10577826;28;20050;-80
2022/11/22 09:28:27;;;;;;;3.72;2.20;;;;;;;-4.94;93.21;101135.22;10577899;28;20048;-80
2022/11/22 09:33:29;;;;;;;1.40;1.38;;;;;;;-4.90;92.81;101134.72;10576817;28;20036;-79
2022/11/22 09:38:32;;;;;;;3.90;2.90;;;;;;;-4.83;92.96;101134.91;10577374;28;20054;-80
2022/11/22 09:43:58;;;;;;;10.68;4.57;;;;;;;-4.80;92.83;101125.69;10561756;28;20068;-79
2022/11/22 09:49:07;;;;;;;7.75;3.10;;;;;;;-4.75;92.87;101117.97;10532648;28;20052;-80
2022/11/22 09:54:15;;;;;;;11.85;5.25;;;;;;;-4.72;92.51;101110.44;10552017;28;20409;-81
2022/11/22 09:59:30;;;;;;;9.57;3.83;;;;;;;-4.65;92.70;101110.59;10569485;28;20040;-78
2022/11/22 10:04:43;;;;;;;5.55;2.78;;;;;;;-4.60;92.44;101103.72;10568605;28;20426;-82
2022/11/22 10:09:49;;;;;;;3.95;2.22;;;;;;;-4.56;92.30;101099.69;10552227;28;20253;-81
2022/11/22 10:14:54;;;;;;;7.20;3.50;;;;;;;-4.51;92.50;101090.31;10560194;28;20035;-80
2022/11/22 10:20:05;;;;;;;10.60;3.72;;;;;;;-4.44;91.53;101091.31;10570029;28;20040;-80
2022/11/22 10:25:19;;;;;;;12.07;3.25;;;;;;;-4.36;91.79;101078.69;10555515;28;20041;-80
2022/11/22 10:30:21;;;;;;;3.28;2.35;;;;;;;-4.29;92.26;101081.53;10542738;28;20070;-80
2022/11/22 10:35:57;;;;;;;5.85;2.75;;;;;;;-4.24;90.99;101079.16;10566599;28;20763;-77
2022/11/22 10:41:12;;;;;;;5.43;2.67;;;;;;;-4.22;91.15;101076.31;10577921;28;20052;-77
2022/11/22 10:46:20;;;;;;;3.58;1.48;;;;;;;-4.18;90.87;101082.97;10536687;28;20037;-77
2022/11/22 10:51:31;;;;;;;5.45;3.13;;;;;;;-4.16;91.00;101073.78;10573078;28;20048;-78
2022/11/22 10:56:51;;;;;;;7.95;3.05;;;;;;;-4.12;90.21;101069.75;10543806;28;20036;-77
2022/11/22 11:02:19;;;;;;;3.72;2.33;;;;;;;-4.07;90.50;101058.50;10555169;28;20070;-77
2022/11/22 11:07:23;;;;;;;9.82;3.55;;;;;;;-4.03;89.87;101070.53;10572247;28;20058;-78
2022/11/22 11:12:41;;;;;;;3.28;2.28;;;;;;;-4.00;89.60;101054.91;10577146;28;20040;-76
2022/11/22 11:17:44;;;;;;;8.80;3.20;;;;;;;-3.96;89.76;101061.63;10576931;28;20040;-77
2022/11/22 11:22:46;;;;;;;7.90;2.83;;;;;;;-3.95;89.13;101068.66;10558461;28;20055;-77
2022/11/22 11:27:49;;;;;;;7.15;3.00;;;;;;;-3.93;88.32;101073.84;10576283;28;20075;-78
2022/11/22 11:32:54;;;;;;;4.30;2.25;;;;;;;-3.90;87.20;101091.41;10575539;28;20039;-76
2022/11/22 11:37:56;;;;;;;4.32;2.42;;;;;;;-3.88;85.69;101070.59;10571136;28;20395;-77
2022/11/22 11:43:15;;;;;;;3.13;2.15;;;;;;;-3.82;85.12;101073.41;10574784;28;20050;-77
2022/11/22 11:48:34;;;;;;;3.72;2.10;;;;;;;-3.79;83.99;101065.03;10574861;28;20044;-76
2022/11/22 11:53:36;;;;;;;3.78;1.92;;;;;;;-3.78;84.04;101073.91;10556362;28;20050;-77
2022/11/22 11:58:39;;;;;;;4.63;2.40;;;;;;;-3.76;83.46;101072.72;10574098;28;20040;-77
2022/11/22 12:03:41;;;;;;;2.67;1.23;;;;;;;-3.75;83.44;101054.78;10575170;28;20502;-77
2022/11/22 12:08:43;;;;;;;4.55;2.40;;;;;;;-3.75;82.90;101066.34;10569468;28;20051;-76
2022/11/22 12:13:57;;;;;;;4.55;2.72;;;;;;;-3.74;83.02;101062.66;10574025;28;20336;-76
2022/11/22 12:19:08;;;;;;;1.77;1.45;;;;;;;-3.73;82.71;101056.28;10573499;28;20643;-78
2022/11/22 12:24:16;;;;;;;7.88;1.95;;;;;;;-3.72;82.54;101060.63;10569977;28;20047;-78
2022/11/22 12:29:18;;;;;;;1.35;1.25;;;;;;;-3.71;82.50;101056.09;10547344;28;20067;-77
2022/11/22 12:34:27;;;;;;;0.93;0.88;;;;;;;-3.71;82.02;101058.78;10531098;28;20040;-78
2022/11/22 12:39:32;;;;;;;1.75;0.98;;;;;;;-3.75;82.11;101044.91;10513826;28;20052;-76
2022/11/22 12:44:44;;;;;;;6.93;2.30;;;;;;;-3.74;82.30;101048.41;10535039;28;20048;-77
2022/11/22 12:50:06;;;;;;;2.42;1.30;;;;;;;-3.77;82.29;101046.94;10544210;28;20410;-78
2022/11/22 12:55:16;;;;;;;5.32;2.78;;;;;;;-3.78;82.35;101025.66;10562469;28;20040;-78
2022/11/22 13:00:23;;;;;;;5.45;2.70;;;;;;;-3.79;82.25;101042.75;10561447;28;20395;-77
2022/11/22 13:05:29;;;;;;;6.75;2.97;;;;;;;-3.81;82.73;101028.69;10561387;28;20056;-78
2022/11/22 13:10:38;;;;;;;5.15;2.75;;;;;;;-3.80;83.83;101036.56;10559701;28;20032;-82
2022/11/22 13:15:43;;;;;;;7.43;3.88;;;;;;;-3.76;83.46;101056.63;10550078;28;20492;-85
2022/11/22 13:21:05;;;;;;;4.25;2.67;;;;;;;-3.83;82.84;101044.09;10562929;28;20048;-80
2022/11/22 13:26:14;;;;;;;4.90;2.40;;;;;;;-3.89;81.92;101042.97;10564984;28;20540;-82
2022/11/22 13:31:17;;;;;;;7.05;3.15;;;;;;;-3.93;81.71;101044.34;10560328;28;20046;-79
2022/11/22 13:36:25;;;;;;;1.40;1.17;;;;;;;-3.91;81.45;101063.75;10561406;28;20050;-79
2022/11/22 13:41:29;;;;;;;3.40;1.92;;;;;;;-3.95;81.10;101065.97;10549167;28;20040;-84
2022/11/22 13:46:52;;;;;;;5.80;2.67;;;;;;;-3.96;80.93;101060.78;10558821;28;20029;-83
2022/11/22 13:51:56;;;;;;;2.78;1.98;;;;;;;-3.97;81.42;101048.41;10569686;28;20060;-83
2022/11/22 13:57:04;;;;;;;2.25;1.60;;;;;;;-3.99;81.30;101059.28;10571304;28;20044;-86
2022/11/22 14:02:21;;;;;;;4.97;1.88;;;;;;;-4.00;81.56;101062.13;10569255;28;20044;-78
2022/11/22 14:07:34;;;;;;;3.25;1.60;;;;;;;-3.98;81.65;101055.59;10561855;28;20056;-77
2022/11/22 14:13:08;;;;;;;2.33;1.38;;;;;;;-3.99;81.65;101053.94;10549624;28;20044;-76
2022/11/22 14:18:23;;;;;;;2.78;1.73;;;;;;;-3.98;82.64;101052.09;10556263;28;20037;-74
2022/11/22 14:23:36;;;;;;;6.75;3.50;;;;;;;-4.00;82.32;101052.22;10567762;28;20056;-79
2022/11/22 14:28:56;;;;;;;6.25;3.35;;;;;;;-4.01;82.61;101047.88;10567630;28;20438;-75
2022/11/22 14:34:21;;;;;;;3.15;2.25;;;;;;;-3.97;83.19;101045.72;10567587;28;20032;-75
2022/11/22 14:39:52;;;;;;;1.90;1.67;;;;;;;-3.92;83.03;101032.59;10550451;28;20055;-79
2022/11/22 14:44:55;;;;;;;1.65;1.33;;;;;;;-3.91;83.18;101023.56;10568778;28;20051;-78
2022/11/22 14:49:57;;;;;;;1.58;1.48;;;;;;;-3.91;83.39;101022.72;10550036;28;20040;-80
2022/11/22 14:55:04;;;;;;;5.55;3.03;;;;;;;-3.92;83.31;101019.19;10553981;28;20039;-73
2022/11/22 15:00:20;;;;;;;5.53;3.10;;;;;;;-3.93;83.41;101012.19;10565553;28;20044;-73
2022/11/22 15:06:00;;;;;;;3.58;2.60;;;;;;;-3.95;83.86;101000.81;10566803;28;20036;-78
2022/11/22 15:11:07;;;;;;;5.72;3.25;;;;;;;-3.92;83.54;101003.13;10547044;28;20068;-79
2022/11/22 15:16:39;;;;;;;4.27;2.73;;;;;;;-3.87;84.26;101010.63;10565132;28;20036;-79
2022/11/22 15:21:41;;;;;;;2.53;1.80;;;;;;;-3.89;84.19;101004.59;10565074;28;20234;-81
2022/11/22 15:26:45;;;;;;;5.57;3.05;;;;;;;-3.86;83.87;101005.06;10565734;28;20032;-81
2022/11/22 15:31:47;;;;;;;3.03;2.13;;;;;;;-3.83;84.12;101010.06;10553901;28;20620;-77
2022/11/22 15:37:23;;;;;;;3.40;2.53;;;;;;;-3.79;83.81;100997.19;10564381;28;20437;-76
2022/11/22 15:42:25;;;;;;;3.28;2.10;;;;;;;-3.75;83.87;100995.78;10563114;28;20070;-75
2022/11/22 15:47:27;;;;;;;3.72;2.55;;;;;;;-3.74;83.30;101008.19;10564913;28;20044;-77
2022/11/22 15:52:36;;;;;;;3.42;2.15;;;;;;;-3.77;83.31;100997.81;10562657;28;20063;-79
2022/11/22 15:57:42;;;;;;;1.63;1.52;;;;;;;-3.75;83.37;100990.44;10573261;28;20059;-76
2022/11/22 16:02:48;;;;;;;3.47;2.58;;;;;;;-3.76;83.32;101018.25;10564478;28;20056;-77
2022/11/22 16:07:50;;;;;;;4.25;2.50;;;;;;;-3.78;82.94;100996.16;10550895;28;20039;-76
2022/11/22 16:12:53;;;;;;;2.67;1.90;;;;;;;-3.76;83.19;101005.69;10564937;28;20047;-76
2022/11/22 16:18:25;;;;;;;4.13;1.63;;;;;;;-3.78;83.48;101018.44;10543856;28;20047;-77
2022/11/22 16:23:32;;;;;;;4.22;2.30;;;;;;;-3.77;83.39;101009.38;10550750;28;20040;-78
2022/11/22 16:28:38;;;;;;;2.88;1.77;;;;;;;-3.77;83.56;101001.34;10558784;28;20055;-78
2022/11/22 16:33:40;;;;;;;2.45;1.95;;;;;;;-3.73;83.56;100993.75;10561487;28;20035;-80
2022/11/22 16:38:44;;;;;;;4.40;2.55;;;;;;;-3.70;83.95;100993.41;10559814;28;20043;-80
2022/11/22 16:43:52;;;;;;;2.72;1.60;;;;;;;-3.71;83.95;100991.75;10565041;28;20044;-79
2022/11/22 16:48:58;;;;;;;1.83;1.38;;;;;;;-3.68;84.26;100999.41;10562744;28;20044;-78
2022/11/22 16:54:05;;;;;;;2.80;1.98;;;;;;;-3.66;84.30;100990.16;10558373;28;20149;-78
2022/11/22 16:59:10;;;;;;;2.67;2.05;;;;;;;-3.64;84.63;100987.34;10562410;28;20046;-75
2022/11/22 17:04:21;;;;;;;2.65;1.70;;;;;;;-3.63;85.03;100990.84;10557419;28;20046;-75
2022/11/22 17:09:24;;;;;;;4.90;2.92;;;;;;;-3.63;84.90;100993.53;10566917;28;20044;-76
2022/11/22 17:14:26;;;;;;;2.85;1.92;;;;;;;-3.63;84.99;100994.38;10567334;28;20051;-77
2022/11/22 17:19:28;;;;;;;3.10;1.67;;;;;;;-3.66;85.21;100989.34;10569071;28;20501;-79
2022/11/22 17:24:30;;;;;;;2.45;1.63;;;;;;;-3.66;85.22;100978.63;10566812;28;20039;-77
2022/11/22 17:29:32;;;;;;;1.48;1.00;;;;;;;-3.68;85.73;100984.16;10566207;28;20063;-77
2022/11/22 17:34:34;;;;;;;6.28;2.45;;;;;;;-3.72;85.62;100979.34;10561717;28;20376;-76
2022/11/22 17:39:37;;;;;;;3.05;1.30;;;;;;;-3.71;85.92;100975.66;10563395;28;20596;-76
2022/11/22 17:44:39;;;;;;;1.00;0.90;;;;;;;-3.70;86.41;100974.63;10567748;28;20511;-75
2022/11/22 17:49:42;;;;;;;3.47;1.65;;;;;;;-3.71;85.98;100971.13;10567530;28;20566;-74
2022/11/22 17:54:44;;;;;;;2.45;1.38;;;;;;;-3.70;86.45;100975.47;10567539;28;20040;-73
2022/11/22 17:59:46;;;;;;;1.85;1.00;;;;;;;-3.69;86.54;100973.63;10567577;28;20054;-72
2022/11/22 18:04:48;;;;;;;1.80;1.58;;;;;;;-3.68;86.29;100969.91;10560590;28;20036;-73
2022/11/22 18:09:50;;;;;;;1.05;0.93;;;;;;;-3.69;86.31;100981.66;10564240;28;20040;-77
2022/11/22 18:14:53;;;;;;;2.88;1.50;;;;;;;-3.71;86.88;100972.97;10559889;28;20039;-74
2022/11/22 18:19:55;;;;;;;0.63;0.63;;;;;;;-3.70;86.96;100977.31;10564838;28;20055;-74
2022/11/22 18:24:58;;;;;;;0.30;0.30;;;;;;;-3.71;86.83;100963.06;10566439;28;20039;-75
2022/11/22 18:30:00;;;;;;;1.67;1.40;;;;;;;-3.67;87.28;100971.59;10563769;28;20414;-73
2022/11/22 18:35:03;;;;;;;1.20;0.85;;;;;;;-3.67;86.93;100977.78;10566712;28;20071;-75
2022/11/22 18:40:06;;;;;;;0.80;0.63;;;;;;;-3.68;87.68;100972.59;10568441;28;20055;-77
2022/11/22 18:45:09;;;;;;;1.27;0.95;;;;;;;-3.67;87.54;100979.63;10545310;28;20040;-79
2022/11/22 18:50:11;;;;;;;2.15;1.15;;;;;;;-3.67;87.71;100971.59;10567689;28;20036;-78
2022/11/22 18:55:16;;;;;;;1.73;1.20;;;;;;;-3.68;87.85;100980.66;10590645;28;20042;-79
2022/11/22 19:00:23;;;;;;;0.80;0.80;;;;;;;-3.69;88.01;100955.69;10575142;28;20059;-77
2022/11/22 19:05:25;;;;;;;2.38;1.20;;;;;;;-3.69;88.76;100963.72;10568291;28;20948;-79
2022/11/22 19:10:34;;;;;;;3.85;1.85;;;;;;;-3.69;89.24;100944.94;10569044;28;20235;-79
2022/11/22 19:15:37;;;;;;;2.65;1.38;;;;;;;-3.69;89.09;100963.72;10562053;28;20379;-78
2022/11/22 19:20:39;;;;;;;0.40;0.40;;;;;;;-3.68;89.54;100956.50;10554770;28;20045;-80
2022/11/22 19:25:42;;;;;;;1.08;0.90;;;;;;;-3.67;89.47;100958.19;10571977;28;20048;-78
2022/11/22 19:30:44;;;;;;;3.45;1.60;;;;;;;-3.66;89.23;100963.34;10541170;28;20070;-78
2022/11/22 19:36:00;;;;;;;1.17;1.00;;;;;;;-3.68;88.58;100961.88;10587538;28;20054;-80
2022/11/22 19:41:10;;;;;;;0.52;0.52;;;;;;;-3.71;88.66;100965.75;10595146;28;20036;-82
2022/11/22 19:46:13;;;;;;;1.80;1.50;;;;;;;-3.71;88.17;100946.16;10583331;28;20047;-83
2022/11/22 19:51:15;;;;;;;2.00;1.35;;;;;;;-3.69;87.83;100949.47;10592018;28;20047;-79
2022/11/22 19:56:18;;;;;;;1.00;0.93;;;;;;;-3.68;87.28;100953.81;10586616;28;20054;-78
2022/11/22 20:01:22;;;;;;;0.95;0.60;;;;;;;-3.67;87.58;100955.50;10576660;28;20032;-78
2022/11/22 20:06:25;;;;;;;1.13;0.90;;;;;;;-3.66;87.21;100947.25;10573040;28;20044;-82
2022/11/22 20:11:27;;;;;;;2.08;1.23;;;;;;;-3.68;86.63;100983.31;10580855;28;20062;-78
2022/11/22 20:16:30;;;;;;;0.63;0.60;;;;;;;-3.69;86.13;100947.63;10584370;28;20047;-77
2022/11/22 20:21:38;;;;;;;1.48;1.10;;;;;;;-3.69;85.59;100954.84;10584446;28;20055;-74
2022/11/22 20:26:41;;;;;;;3.45;1.15;;;;;;;-3.65;85.43;100945.41;10578387;28;20040;-74
2022/11/22 20:31:43;;;;;;;2.38;1.35;;;;;;;-3.60;84.57;100953.78;10581061;28;20044;-74
2022/11/22 20:36:46;;;;;;;1.15;1.02;;;;;;;-3.59;84.61;100952.75;10575997;28;20048;-77
2022/11/22 20:41:48;;;;;;;0.93;0.80;;;;;;;-3.55;84.01;100955.91;10582052;28;20035;-79
2022/11/22 20:46:51;;;;;;;1.65;1.10;;;;;;;-3.55;83.89;100951.38;10586407;28;20047;-75
2022/11/22 20:51:53;;;;;;;1.77;1.23;;;;;;;-3.54;83.43;100969.13;10582182;28;20031;-75
2022/11/22 20:56:56;;;;;;;1.80;1.48;;;;;;;-3.55;83.19;100954.06;10559160;28;20040;-75
2022/11/22 21:01:58;;;;;;;3.88;1.58;;;;;;;-3.55;83.56;100946.00;10575882;28;20422;-74
2022/11/22 21:07:00;;;;;;;1.00;0.90;;;;;;;-3.52;84.06;100953.69;10577263;28;20062;-75
2022/11/22 21:12:02;;;;;;;1.73;1.20;;;;;;;-3.46;83.78;100946.78;10569923;28;20044;-76
2022/11/22 21:17:05;;;;;;;2.20;1.30;;;;;;;-3.45;84.20;100959.19;10554056;28;20044;-76
2022/11/22 21:22:07;;;;;;;1.30;1.20;;;;;;;-3.48;84.69;100954.16;10568620;28;20044;-73
2022/11/22 21:27:09;;;;;;;0.40;0.40;;;;;;;-3.48;84.83;100954.16;10576053;28;20044;-73
2022/11/22 21:32:12;;;;;;;3.00;1.58;;;;;;;-3.50;85.68;100970.44;10557031;28;20040;-72
2022/11/22 21:37:14;;;;;;;1.58;1.48;;;;;;;-3.52;86.82;100964.41;10571633;28;20050;-73
2022/11/22 21:42:17;;;;;;;0.35;0.35;;;;;;;-3.53;87.21;100976.16;10572783;28;20337;-72
2022/11/22 21:47:20;;;;;;;2.38;1.40;;;;;;;-3.52;87.85;100975.16;10575324;28;20044;-73
2022/11/22 21:52:22;;;;;;;0.80;0.80;;;;;;;-3.52;88.49;100977.81;10561425;28;20032;-75
2022/11/22 21:57:25;;;;;;;1.42;1.02;;;;;;;-3.52;88.81;100969.78;10581931;28;20044;-76
2022/11/22 22:02:29;;;;;;;1.60;1.30;;;;;;;-3.48;89.92;100968.41;10577381;28;20040;-76
2022/11/22 22:07:31;;;;;;;2.53;1.95;;;;;;;-3.49;89.84;100968.59;10573620;28;20048;-75
2022/11/22 22:12:33;;;;;;;2.50;1.27;;;;;;;-3.49;90.61;100969.41;10577666;28;20363;-76
2022/11/22 22:17:35;;;;;;;0.50;0.50;;;;;;;-3.46;90.75;100970.94;10570484;28;20052;-77
2022/11/22 22:22:38;;;;;;;0.80;0.60;;;;;;;-3.45;91.21;100960.00;10533709;28;20054;-75
2022/11/22 22:27:40;;;;;;;1.55;1.10;;;;;;;-3.40;91.11;100960.28;10571563;28;20137;-75
2022/11/22 22:32:42;;;;;;;1.60;1.17;;;;;;;-3.38;91.24;100954.75;10563111;28;20036;-78
2022/11/22 22:37:44;;;;;;;2.50;1.40;;;;;;;-3.35;91.73;100960.56;10551142;28;20048;-76
2022/11/22 22:42:47;;;;;;;1.60;1.10;;;;;;;-3.30;91.94;100960.00;10551058;28;20143;-76
2022/11/22 22:47:50;;;;;;;2.08;1.20;;;;;;;-3.26;91.95;100952.44;10571742;28;20553;-80
2022/11/22 22:52:52;;;;;;;1.52;0.98;;;;;;;-3.23;92.24;100944.03;10566402;28;20040;-77
2022/11/22 22:57:56;;;;;;;2.28;1.33;;;;;;;-3.20;92.00;100949.03;10561628;28;20048;-76
2022/11/22 23:02:58;;;;;;;2.08;1.50;;;;;;;-3.13;92.27;100952.63;10575258;28;20502;-75
2022/11/22 23:08:00;;;;;;;3.05;1.85;;;;;;;-3.10;92.36;100952.28;10578766;28;20043;-75
2022/11/22 23:13:04;;;;;;;1.42;1.25;;;;;;;-3.09;92.24;100948.59;10556910;28;20064;-77
2022/11/22 23:18:07;;;;;;;1.20;1.05;;;;;;;-3.08;92.38;100947.56;10576834;28;20044;-75
2022/11/22 23:23:09;;;;;;;1.10;0.90;;;;;;;-3.07;91.56;100959.97;10567577;28;20048;-75
2022/11/22 23:28:12;;;;;;;1.30;1.10;;;;;;;-3.06;91.44;100953.56;10580825;28;20063;-74
2022/11/22 23:33:14;;;;;;;1.48;0.98;;;;;;;-3.03;91.52;100947.84;10563415;28;20043;-75